createdAt,value
2022-09-18T06:15:05.251Z,12.53
2022-09-18T06:16:05.230Z,12.47
2022-09-18T06:17:05.121Z,12.47
2022-09-18T06:18:05.133Z,12.53
2022-09-18T06:19:05.129Z,12.54
2022-09-18T06:20:05.131Z,12.54
2022-09-18T06:21:05.138Z,12.57
2022-09-18T06:22:05.144Z,12.65
2022-09-18T06:23:05.155Z,12.61
2022-09-18T06:24:05.157Z,12.60
2022-09-18T06:25:05.159Z,12.65
2022-09-18T06:26:05.165Z,12.64
2022-09-18T06:27:05.171Z,12.62
2022-09-18T06:28:05.169Z,12.61
2022-09-18T06:29:05.183Z,12.58
2022-09-18T06:30:05.180Z,12.70
2022-09-18T06:31:05.395Z,12.72
2022-09-18T06:32:05.190Z,12.57
2022-09-18T06:33:05.204Z,12.68
2022-09-18T06:34:05.200Z,12.76
2022-09-18T06:35:05.212Z,12.76
2022-09-18T06:36:05.210Z,12.70
2022-09-18T06:37:05.215Z,12.83
2022-09-18T06:38:05.226Z,12.80
2022-09-18T06:39:05.224Z,12.80
2022-09-18T06:40:05.273Z,12.82
2022-09-18T06:41:05.236Z,12.94
2022-09-18T06:42:05.249Z,13.00
2022-09-18T06:43:05.252Z,12.98
2022-09-18T06:44:05.257Z,12.98
2022-09-18T06:45:05.257Z,12.94
2022-09-18T06:46:05.270Z,13.00
2022-09-18T06:47:05.419Z,12.95
2022-09-18T06:49:02.851Z,12.98
2022-09-18T06:50:02.866Z,13.05
2022-09-18T06:51:02.865Z,13.04
2022-09-18T06:52:02.871Z,13.11
2022-09-18T06:53:02.865Z,13.19
2022-09-18T06:54:03.125Z,13.13
2022-09-18T06:55:02.880Z,13.15
2022-09-18T06:56:02.891Z,13.13
2022-09-18T06:57:02.887Z,13.12
2022-09-18T06:58:02.894Z,13.19
2022-09-18T06:59:02.898Z,13.23
2022-09-18T07:00:04.959Z,13.20
2022-09-18T07:01:02.952Z,13.35
2022-09-18T07:02:03.006Z,13.30
2022-09-18T08:46:03.314Z,24.21
2022-09-18T08:47:03.254Z,24.42
2022-09-18T08:48:03.209Z,24.30
2022-09-18T08:49:03.227Z,24.01
2022-09-18T08:50:03.248Z,23.92
2022-09-18T08:51:03.254Z,23.48
2022-09-18T08:52:03.268Z,23.62
2022-09-18T08:53:03.278Z,24.13
2022-09-18T08:54:03.327Z,24.47
2022-09-18T08:55:03.309Z,24.38
2022-09-18T08:56:03.316Z,23.81
2022-09-18T08:57:03.326Z,23.41
2022-09-18T08:58:03.336Z,23.28
2022-09-18T08:59:03.350Z,23.18
2022-09-18T09:00:03.362Z,23.50
2022-09-18T09:01:03.479Z,23.98
2022-09-18T09:02:03.607Z,24.35
2022-09-18T09:03:03.408Z,24.20
2022-09-18T09:04:03.417Z,24.39
2022-09-18T09:05:03.437Z,24.86
2022-09-18T09:06:03.451Z,24.51
2022-09-18T09:07:03.458Z,24.91
2022-09-18T09:08:03.471Z,25.26
2022-09-18T09:09:03.526Z,25.13
2022-09-18T09:10:03.505Z,25.43
2022-09-18T09:11:03.514Z,25.59
2022-09-18T09:12:03.537Z,25.85
2022-09-18T09:13:03.549Z,25.96
2022-09-18T09:17:09.640Z,26.22
2022-09-18T09:18:09.538Z,26.53
2022-09-18T09:19:09.552Z,26.21
2022-09-18T09:20:09.569Z,25.66
2022-09-18T09:21:11.789Z,25.77
2022-09-18T09:22:09.642Z,25.65
2022-09-18T09:23:09.606Z,25.28
2022-09-18T09:24:09.634Z,24.50
2022-09-18T09:25:09.637Z,24.29
2022-09-18T09:26:09.660Z,23.95
2022-09-18T09:27:09.669Z,23.84
2022-09-18T09:28:12.289Z,24.11
2022-09-18T09:29:09.707Z,24.43
2022-09-18T09:30:09.717Z,24.65
2022-09-18T09:31:09.833Z,24.30
2022-09-18T09:32:09.747Z,24.21
2022-09-18T09:33:09.882Z,24.53
2022-09-18T09:34:09.776Z,24.84
2022-09-18T09:35:09.793Z,25.16
2022-09-18T09:36:09.814Z,25.44
2022-09-18T09:37:09.830Z,25.62
2022-09-18T09:38:09.839Z,25.33
2022-09-18T09:39:09.857Z,24.93
2022-09-18T09:40:09.969Z,24.43
2022-09-18T09:41:09.895Z,24.01
2022-09-18T09:42:09.902Z,23.68
2022-09-18T09:43:09.931Z,23.32
2022-09-18T09:44:09.943Z,22.94
2022-09-18T09:45:09.956Z,22.81
2022-09-18T09:46:10.036Z,23.05
2022-09-18T09:47:10.026Z,23.39
2022-09-18T09:48:09.994Z,23.44
2022-09-18T09:49:10.130Z,23.18
2022-09-18T09:50:10.039Z,23.00
2022-09-18T09:51:10.044Z,22.69
2022-09-18T09:52:10.058Z,22.32
2022-09-18T09:53:10.070Z,22.00
2022-09-18T10:01:45.981Z,20.58
2022-09-18T10:02:45.933Z,20.63
2022-09-18T10:03:45.941Z,20.67
2022-09-18T10:04:46.068Z,20.47
2022-09-18T10:05:49.276Z,20.44
2022-09-18T10:06:45.981Z,20.34
2022-09-18T10:07:46.004Z,20.60
2022-09-18T10:08:46.010Z,20.60
2022-09-18T10:09:46.023Z,20.56
2022-09-18T10:10:46.032Z,20.47
2022-09-18T10:11:46.041Z,20.51
2022-09-18T10:12:46.055Z,20.69
2022-09-18T10:13:46.067Z,20.88
2022-09-18T10:14:46.080Z,20.96
2022-09-18T10:15:46.102Z,20.82
2022-09-18T10:16:46.112Z,20.80
2022-09-18T10:17:46.120Z,20.67
2022-09-18T10:18:46.136Z,20.43
2022-09-18T10:19:46.145Z,20.19
2022-09-18T10:20:46.283Z,19.74
2022-09-18T10:21:46.177Z,19.66
2022-09-18T10:22:46.192Z,19.33
2022-09-18T10:23:46.196Z,19.09
2022-09-18T10:24:46.207Z,18.89
2022-09-18T10:25:46.221Z,18.73
2022-09-18T10:37:48.804Z,21.50
2022-09-18T10:38:48.693Z,21.48
2022-09-18T10:39:48.719Z,21.36
2022-09-18T10:40:48.718Z,21.24
2022-09-18T10:41:48.734Z,21.07
2022-09-18T10:43:41.319Z,20.75
2022-09-18T10:50:34.604Z,19.77
2022-09-18T10:51:33.839Z,19.76
2022-09-18T10:52:33.854Z,20.06
2022-09-18T10:53:33.997Z,20.22
2022-09-18T10:54:36.500Z,20.47
2022-09-18T10:55:33.899Z,20.95
2022-09-18T10:56:33.912Z,21.29
2022-09-18T10:57:33.921Z,21.58
2022-09-18T10:58:33.936Z,21.91
2022-09-18T10:59:33.948Z,22.35
2022-09-18T11:00:34.000Z,22.60
2022-09-18T11:01:34.014Z,22.91
2022-09-18T11:02:34.056Z,23.13
2022-09-18T11:03:34.009Z,23.51
2022-09-18T11:06:34.199Z,23.98
2022-09-18T11:11:43.525Z,23.18
2022-09-18T11:12:43.421Z,23.03
2022-09-18T11:13:43.448Z,23.00
2022-09-18T11:14:43.453Z,22.72
2022-09-18T11:15:43.471Z,22.39
2022-09-18T11:16:43.540Z,22.17
2022-09-18T11:19:53.697Z,21.25
2022-09-18T11:22:01.314Z,21.07
2022-09-18T11:23:01.337Z,21.18
2022-09-18T11:24:01.471Z,21.36
2022-09-18T11:25:01.362Z,21.67
2022-09-18T11:26:01.377Z,21.83
2022-09-18T11:27:01.726Z,22.14
2022-09-18T11:28:01.413Z,22.43
2022-09-18T11:29:01.421Z,22.90
2022-09-18T11:40:58.302Z,25.38
2022-09-18T11:41:58.317Z,25.54
2022-09-18T11:42:58.478Z,25.60
2022-09-18T11:43:58.346Z,25.46
2022-09-18T11:44:58.367Z,25.54
2022-09-18T11:45:58.394Z,25.28
2022-09-18T11:46:58.482Z,24.91
2022-09-18T11:47:58.430Z,24.40
2022-09-18T11:49:02.488Z,24.16
2022-09-18T11:49:58.460Z,23.93
2022-09-18T11:50:58.488Z,23.63
2022-09-18T11:51:58.506Z,23.47
2022-09-18T11:52:58.524Z,23.13
2022-09-18T11:53:58.539Z,22.94
2022-09-18T11:54:58.560Z,22.59
2022-09-18T11:55:58.575Z,22.28
2022-09-18T11:56:58.587Z,22.04
2022-09-18T11:57:58.601Z,21.75
2022-09-18T11:58:58.740Z,21.64
2022-09-18T11:59:58.642Z,21.48
2022-09-18T12:01:02.964Z,21.27
2022-09-18T12:01:58.705Z,21.06
2022-09-18T12:10:22.672Z,20.26
2022-09-18T12:11:22.686Z,20.18
2022-09-18T12:12:22.706Z,20.24
2022-09-18T12:13:22.713Z,20.28
2022-09-18T12:14:22.849Z,20.26
2022-09-18T12:15:22.739Z,20.39
2022-09-18T12:16:22.809Z,20.39
2022-09-18T12:17:22.763Z,20.22
2022-09-18T12:18:22.787Z,20.19
2022-09-18T12:19:22.798Z,20.00
2022-09-18T12:20:22.805Z,20.07
2022-09-18T12:21:22.817Z,20.16
2022-09-18T12:22:22.838Z,20.22
2022-09-18T12:23:22.843Z,20.14
2022-09-18T12:24:22.865Z,19.99
2022-09-18T12:25:22.874Z,19.95
2022-09-18T12:26:22.890Z,19.71
2022-09-18T12:27:27.074Z,19.62
2022-09-18T12:30:00.691Z,19.29
2022-09-18T12:48:03.136Z,18.49
2022-09-18T12:54:59.242Z,18.44
2022-09-18T12:56:01.866Z,18.45
2022-09-18T13:03:31.448Z,17.90
2022-09-18T13:04:28.654Z,17.64
2022-09-18T13:05:28.661Z,17.22
2022-09-18T13:06:28.670Z,16.91
2022-09-18T13:07:28.679Z,16.72
2022-09-18T13:08:28.695Z,16.46
2022-09-18T13:09:28.699Z,16.13
2022-09-18T13:10:28.715Z,15.98
2022-09-18T13:11:28.727Z,15.76
2022-09-18T13:12:28.743Z,15.65
2022-09-18T13:13:28.747Z,15.46
2022-09-18T13:14:28.747Z,15.29
2022-09-18T13:15:28.757Z,15.25
2022-09-18T13:16:29.543Z,15.07
2022-09-18T13:17:29.518Z,15.09
2022-09-18T13:18:29.522Z,14.96
2022-09-18T13:19:29.657Z,14.79
2022-09-18T13:20:29.543Z,14.66
2022-09-18T13:21:29.543Z,14.62
2022-09-18T13:22:29.551Z,14.65
2022-09-18T13:23:29.568Z,14.44
2022-09-18T13:24:29.568Z,14.36
2022-09-18T13:25:29.579Z,14.29
2022-09-18T13:26:29.586Z,14.17
2022-09-18T14:01:35.265Z,14.65
2022-09-18T14:02:35.102Z,14.54
2022-09-18T14:03:35.115Z,14.54
